Airport ICAO


14:13 UTC

16°C

Rain


An affordable passengers' Moving Map for your aircraft. Made for the iPad and the iPhone
More information here

LFPV Velizy


Villacoublay FRANCE   IFR CB CAT I


METAR LFPV 231400Z AUTO 32018KT 290V360 5000 RA BR BKN007/// BKN012/// BKN036/// ///CB 16/15 Q1014 TEMPO BKN015TCU BECMG 32015G35KT 0h13min





NOTAMS

OPEN